Date,TemperatureHighF,TemperatureAvgF,TemperatureLowF,DewpointHighF,DewpointAvgF,DewpointLowF,HumidityHigh,HumidityAvg,HumidityLow,PressureMaxIn,PressureMinIn,WindSpeedMaxMPH,WindSpeedAvgMPH,GustSpeedMaxMPH,PrecipitationSumIn
2014-1-1,36,27,22,19,15,5,77,61,40,30.77,30.49,5,1,8,0.00
2014-1-2,41,30,22,10,6,-1,56,39,17,30.84,30.66,5,1,8,0.00
2014-1-3,39,31,27,6,-1,-9,38,26,17,30.66,30.28,7,1,14,0.00
2014-1-4,36,26,10,17,9,-7,66,48,33,30.34,30.06,10,2,19,0.00
2014-1-5,17,8,2,-2,-8,-12,64,50,33,30.99,30.34,6,1,9,0.00
2014-1-6,31,16,5,3,-4,-10,56,42,27,31.14,30.98,3,0,7,0.00
2014-1-7,41,28,19,14,8,2,55,44,29,30.97,30.48,5,1,9,0.00
2014-1-8,34,26,18,15,11,7,66,55,43,30.58,30.45,5,0,7,0.00
2014-1-9,33,26,20,20,14,11,85,62,39,30.55,30.30,12,2,16,0.00
2014-1-10,30,24,19,18,14,11,82,68,52,30.58,30.23,8,3,17,0.00
2014-1-11,42,31,22,19,15,13,71,53,33,30.75,30.41,6,1,10,0.00
2014-1-12,35,28,14,19,14,0,71,56,42,30.48,30.09,16,4,24,0.00
2014-1-13,28,19,12,12,6,-1,69,57,41,30.84,30.49,7,1,13,0.00
2014-1-14,35,24,15,12,8,3,77,53,25,30.95,30.80,6,1,13,0.00
2014-1-15,40,27,19,16,10,6,61,49,32,30.93,30.70,4,1,8,0.00
2014-1-16,40,28,21,8,6,-3,55,40,16,30.77,30.63,5,0,8,0.00
2014-1-17,38,27,19,14,7,2,54,44,31,30.76,30.65,3,0,6,0.00
2014-1-18,44,30,22,14,9,6,54,41,25,30.78,30.66,3,0,4,0.00
2014-1-19,41,33,27,17,12,9,52,43,32,30.77,30.55,5,1,9,0.00
2014-1-20,44,32,24,12,8,1,57,38,17,30.88,30.57,5,1,7,0.00
2014-1-21,43,30,21,10,5,-3,57,37,14,30.90,30.71,5,1,7,0.00
2014-1-22,39,30,17,7,-1,-15,63,29,15,30.70,30.36,3,0,5,0.00
2014-1-23,21,16,10,13,11,6,89,80,65,31.11,30.48,2,0,5,0.00
2014-1-24,37,22,9,9,4,-6,89,52,24,31.18,31.00,3,0,5,0.00
2014-1-25,47,33,22,16,9,1,55,38,25,30.99,30.45,6,1,9,0.00
2014-1-26,42,31,24,16,12,10,58,46,31,30.45,30.29,5,1,8,0.00
2014-1-27,36,28,22,16,14,11,68,55,41,30.41,30.28,9,2,12,0.00
2014-1-28,31,23,13,12,7,1,77,53,33,30.68,30.30,6,1,14,0.00
2014-1-29,39,28,19,18,4,-5,59,37,25,30.68,30.34,6,2,14,0.00
2014-1-30,41,36,28,31,24,16,93,64,52,30.38,29.99,12,2,15,0.00
2014-1-31,34,31,24,31,26,21,93,82,65,30.08,29.92,13,4,18,0.00
2014-2-1,29,23,13,21,14,8,90,72,49,30.47,30.06,8,2,17,0.00
2014-2-2,28,18,10,11,7,3,87,64,35,30.64,30.46,4,1,9,0.06
2014-2-3,29,22,17,20,16,7,91,79,59,30.56,30.23,4,1,5,0.01
2014-2-4,23,18,13,18,14,8,91,85,71,30.57,30.20,5,1,11,0.00
2014-2-5,24,16,10,15,10,5,89,79,59,30.71,30.57,5,1,10,0.00
2014-2-6,26,19,13,15,13,10,90,80,60,30.64,30.50,8,1,12,0.02
2014-2-7,27,22,18,20,17,15,89,81,65,30.55,30.42,8,2,19,0.00
2014-2-8,34,27,21,25,20,16,86,75,62,30.66,30.52,7,2,16,0.02
2014-2-9,46,36,29,28,25,21,77,64,41,30.64,30.30,8,2,13,0.19
2014-2-10,43,34,27,30,26,19,89,72,42,30.37,30.15,6,1,15,0.03
2014-2-11,38,29,20,23,19,14,89,69,40,30.55,30.36,6,1,11,0.03
2014-2-12,39,29,18,15,12,4,76,51,28,30.67,30.48,7,2,12,0.00
2014-2-13,48,37,27,26,21,15,70,53,37,30.54,30.31,10,3,18,0.00
2014-2-14,48,39,33,27,24,22,66,55,41,30.42,30.21,12,3,23,0.00
2014-2-15,52,42,34,25,19,14,66,42,24,30.43,30.34,15,2,20,0.00
2014-2-16,50,42,36,20,15,9,47,35,26,30.39,30.19,12,4,26,0.00
2014-2-17,50,37,26,18,7,-7,57,32,10,30.58,30.13,7,1,9,0.00
2014-2-18,51,40,31,15,10,4,47,30,17,30.15,30.06,6,1,10,0.00
2014-2-19,46,38,28,23,13,8,57,36,26,30.07,29.57,14,3,25,0.00
2014-2-20,28,21,14,9,-1,-5,56,39,25,30.40,29.64,12,3,18,0.00
2014-2-21,39,26,16,10,3,-7,47,37,29,30.42,30.21,6,2,15,0.00
2014-2-22,41,32,23,15,11,8,54,42,29,30.20,30.04,7,2,12,0.00
2014-2-23,47,36,26,12,7,2,52,33,19,30.25,30.14,8,1,11,0.00
2014-2-24,49,37,28,10,6,2,35,28,16,30.23,30.12,7,1,12,0.00
2014-2-25,49,38,30,15,10,5,40,31,21,30.20,29.98,10,2,12,0.00
2014-2-26,48,36,27,18,13,10,54,39,26,30.09,30.00,5,1,10,0.00
2014-2-27,42,33,27,30,21,12,94,63,45,30.05,29.74,6,2,16,0.00
2014-2-28,40,32,25,26,23,21,92,73,51,30.17,29.83,12,2,14,0.28
2014-3-1,39,34,30,33,28,25,95,81,59,30.11,29.86,14,2,16,0.07
2014-3-2,34,30,26,31,28,25,95,92,88,30.30,29.93,3,0,8,0.19
2014-3-3,35,28,24,28,24,22,94,86,71,30.36,30.27,7,0,7,0.07
2014-3-4,41,31,23,28,24,17,91,75,37,30.30,30.05,4,0,8,0.01
2014-3-5,44,33,23,28,22,9,94,67,26,30.35,30.06,5,1,8,0.04
2014-3-6,48,37,28,22,16,8,76,46,24,30.35,30.01,4,1,10,0.00
2014-3-7,43,34,24,30,22,13,89,62,40,30.10,29.88,6,1,9,0.00
2014-3-8,36,26,21,21,16,12,88,68,45,30.63,30.10,3,0,7,0.02
2014-3-9,54,34,18,16,10,2,72,41,13,30.65,30.40,3,0,6,0.00
2014-3-10,58,43,31,16,8,-8,48,27,7,30.40,29.83,8,1,10,0.00
2014-3-11,44,36,20,14,9,-1,63,35,16,30.23,29.70,15,3,22,0.00
2014-3-12,43,26,12,12,9,5,81,52,24,30.54,30.24,4,1,7,0.00
2014-3-13,49,36,24,19,14,8,59,42,26,30.53,30.07,7,1,12,0.00
2014-3-14,38,31,28,30,26,19,94,82,63,30.23,30.06,10,0,14,0.00
2014-3-15,40,28,20,28,24,15,95,86,56,30.42,30.05,2,0,4,0.29
2014-3-16,45,28,13,22,14,8,88,60,31,30.61,30.39,2,0,6,0.22
2014-3-17,49,38,29,18,13,8,57,36,22,30.37,29.55,10,2,17,0.00
2014-3-18,40,29,19,14,7,-1,80,41,26,30.18,29.51,6,2,14,0.00
2014-3-19,40,27,15,13,8,0,87,49,22,30.49,30.19,5,1,10,0.00
2014-3-20,50,37,25,8,0,-9,37,22,9,30.47,30.06,8,2,14,0.00
2014-3-21,55,39,28,16,7,-1,59,29,16,30.13,29.93,5,1,13,0.00
2014-3-22,49,35,24,21,16,13,70,48,25,30.25,30.05,7,2,16,0.00
2014-3-23,43,33,25,27,21,10,91,64,33,30.30,30.20,7,2,16,0.06
2014-3-24,53,38,28,17,9,3,61,32,14,30.28,30.16,6,1,14,0.00
2014-3-25,55,39,25,19,11,3,60,35,13,30.29,29.98,6,1,11,0.00
2014-3-26,49,37,28,30,26,17,93,67,38,29.98,29.61,8,2,18,0.00
2014-3-27,38,31,25,27,21,16,93,70,47,30.06,29.68,8,3,19,0.18
2014-3-28,46,35,26,22,15,9,69,47,24,30.37,30.05,7,2,12,0.01
2014-3-29,53,38,23,24,15,8,63,41,26,30.45,30.20,6,1,11,0.00
2014-3-30,55,44,35,18,13,4,47,31,17,30.22,29.74,12,2,17,0.00
2014-3-31,48,35,25,15,8,3,56,34,17,30.11,29.84,7,2,13,0.00
2014-4-1,54,43,34,17,10,7,35,26,18,30.11,29.77,14,3,17,0.00
2014-4-2,52,41,31,18,12,8,46,31,21,29.81,29.62,10,2,14,0.00
2014-4-3,33,26,21,25,18,9,90,73,42,30.35,29.68,5,1,11,0.04
2014-4-4,43,30,17,22,16,8,91,61,27,30.44,30.17,5,1,9,0.11
2014-4-5,44,32,27,30,20,13,92,64,35,30.17,29.89,4,1,10,0.04
2014-4-6,43,31,27,31,25,18,93,79,40,30.13,29.98,4,0,9,0.08
2014-4-7,44,32,20,24,17,10,92,61,26,30.45,30.12,6,1,10,0.06
2014-4-8,57,42,28,24,18,14,61,41,22,30.47,30.32,4,1,8,0.00
2014-4-9,62,48,36,23,17,11,49,31,16,30.32,30.02,8,2,11,0.00
2014-4-10,64,51,39,17,11,5,36,21,13,30.02,29.89,7,2,13,0.00
2014-4-11,63,49,34,16,8,4,39,21,10,30.09,29.93,6,1,9,0.00
2014-4-12,62,47,39,35,19,5,83,35,20,29.93,29.66,7,2,14,0.00
2014-4-13,53,40,25,33,25,20,93,60,29,29.89,29.63,9,2,16,0.01
2014-4-14,34,23,12,25,17,9,90,78,52,30.53,29.90,5,0,8,0.35
2014-4-15,50,37,22,23,12,2,66,39,19,30.53,29.99,7,2,15,0.00
2014-4-16,58,41,30,31,15,3,94,39,18,30.01,29.81,6,1,12,0.00
2014-4-17,49,37,27,37,30,23,95,77,49,30.28,30.01,3,0,7,0.49
2014-4-18,62,47,34,33,26,22,66,45,24,30.30,30.02,7,1,13,0.00
2014-4-19,56,45,37,38,33,27,88,66,36,30.04,29.73,7,1,11,0.00
2014-4-20,54,42,36,41,37,34,95,81,52,30.01,29.82,4,0,10,0.08
2014-4-21,57,43,34,42,36,32,94,77,49,30.07,29.97,5,0,11,0.14
2014-4-22,64,51,40,40,34,26,82,55,28,30.04,29.57,7,2,16,0.00
2014-4-23,57,46,36,35,25,12,66,44,28,29.57,29.39,10,3,16,0.00
2014-4-24,58,41,27,16,8,-5,60,30,11,29.91,29.58,7,2,14,0.00
2014-4-25,62,48,36,19,10,-4,29,22,16,29.88,29.55,6,1,14,0.00
2014-4-26,55,43,22,32,19,15,93,44,22,29.55,29.19,10,2,15,0.00
2014-4-27,35,28,21,27,22,14,94,78,55,29.75,29.20,10,3,26,0.11
2014-4-28,39,30,25,24,16,6,87,58,28,29.96,29.71,8,2,20,0.14
2014-4-29,42,30,17,24,13,8,81,51,33,30.17,29.96,6,0,6,0.00
2014-4-30,39,30,21,27,22,15,94,74,41,30.25,30.13,3,0,8,0.01
2014-5-1,41,31,25,30,25,18,94,79,41,30.25,30.11,4,0,6,0.25
2014-5-2,58,41,25,29,21,17,81,49,21,30.20,29.98,4,0,8,0.01
2014-5-3,67,52,37,28,21,15,55,32,17,29.98,29.77,7,1,10,0.00
2014-5-4,69,55,41,23,16,11,35,23,13,29.80,29.66,8,2,13,0.00
2014-5-5,67,54,42,20,15,10,34,21,12,29.74,29.54,8,1,10,0.00
2014-5-6,65,52,41,20,14,6,40,23,15,29.56,29.36,6,2,12,0.00
2014-5-7,55,44,32,29,14,6,83,34,16,29.59,29.36,6,1,15,0.00
2014-5-8,43,34,28,34,24,19,93,68,41,29.97,29.60,8,1,11,0.03
2014-5-9,57,43,29,27,22,16,82,48,23,29.99,29.76,11,2,16,0.01
2014-5-10,67,52,37,27,23,19,58,34,20,29.77,29.39,5,1,10,0.00
2014-5-11,60,48,36,30,22,15,52,37,25,29.53,29.26,11,2,15,0.00
2014-5-12,35,29,22,26,22,16,92,76,46,30.24,29.55,2,0,6,0.04
2014-5-13,32,24,19,26,20,16,91,85,66,30.58,30.26,2,0,4,0.43
2014-5-14,45,30,13,27,19,11,92,66,30,30.59,30.39,3,0,9,0.05
2014-5-15,56,42,29,29,23,19,73,49,30,30.40,30.06,5,1,8,0.00
2014-5-16,64,50,36,33,25,19,65,41,18,30.09,29.79,5,1,12,0.00
2014-5-17,68,51,34,34,30,23,89,50,22,29.82,29.70,6,1,11,0.00
2014-5-18,71,56,41,38,23,5,69,33,13,29.76,29.55,10,1,14,0.00
2014-5-19,71,58,48,18,11,6,27,16,8,29.59,29.52,7,2,13,0.00
2014-5-20,71,56,43,18,10,0,30,17,6,29.69,29.60,6,1,11,0.00
2014-5-21,64,54,41,30,22,11,48,30,21,29.81,29.66,5,1,14,0.00
2014-5-22,62,47,37,48,36,28,96,70,32,29.98,29.75,4,0,11,1.10
2014-5-23,56,43,36,48,40,35,97,89,57,30.01,29.88,3,0,7,0.19
2014-5-24,58,41,33,44,37,32,97,88,48,29.93,29.76,6,0,13,0.11
2014-5-25,50,40,31,39,34,30,97,83,47,29.98,29.86,4,0,6,0.20
2014-5-26,55,43,37,46,38,35,95,84,54,30.00,29.88,3,0,7,0.08
2014-5-27,70,55,40,44,38,35,88,57,29,30.02,29.86,3,0,6,0.06
2014-5-28,71,54,43,44,39,35,80,58,32,29.90,29.79,5,0,11,0.00
2014-5-29,70,53,42,47,42,38,93,70,34,29.86,29.72,5,1,9,0.06
2014-5-30,70,56,45,46,41,36,93,63,33,29.85,29.74,8,1,10,0.00
2014-5-31,74,59,43,45,37,31,82,50,24,29.81,29.64,5,1,11,0.00
2014-6-1,73,63,52,43,26,9,56,28,10,29.64,29.53,7,2,16,0.00
2014-6-2,79,61,41,44,25,13,58,28,10,29.76,29.61,7,1,10,0.00
2014-6-3,80,66,55,42,31,21,57,31,14,29.68,29.48,8,2,21,0.00
2014-6-4,80,66,54,24,18,4,31,17,8,29.55,29.43,8,2,14,0.00
2014-6-5,76,61,51,47,27,2,75,31,10,29.59,29.47,5,1,13,0.00
2014-6-6,74,59,46,50,36,4,94,53,11,29.60,29.49,3,1,12,0.00
2014-6-7,63,51,43,48,42,10,93,74,18,29.80,29.58,7,1,11,0.09
2014-6-8,66,49,38,50,40,29,96,73,47,29.81,29.58,4,1,16,0.03
2014-6-9,68,50,33,33,29,18,87,50,16,29.83,29.74,4,1,9,0.02
2014-6-10,75,58,42,36,26,16,66,34,16,29.82,29.63,5,1,11,0.00
2014-6-11,76,62,48,35,26,17,50,26,15,29.68,29.47,6,2,15,0.00
2014-6-12,68,55,44,45,40,33,80,59,35,29.81,29.59,5,1,13,0.00
2014-6-13,72,56,45,47,42,37,92,64,30,29.79,29.56,7,1,13,0.01
2014-6-14,72,59,47,43,27,7,76,36,9,29.59,29.40,10,3,19,0.07
2014-6-15,73,59,40,24,12,4,35,17,9,29.65,29.52,8,2,16,0.00
2014-6-16,74,62,50,23,14,6,24,16,10,29.60,29.48,11,3,25,0.00
2014-6-17,70,60,54,35,30,22,42,33,21,29.58,29.50,9,3,22,0.00
2014-6-18,70,57,49,37,32,30,53,40,26,29.66,29.55,6,2,13,0.00
2014-6-19,75,59,42,36,27,18,65,34,13,29.81,29.65,5,1,10,0.00
2014-6-20,79,61,44,42,30,17,56,35,14,29.82,29.62,6,1,11,0.00
2014-6-21,78,63,51,43,34,22,67,38,15,29.68,29.53,5,1,9,0.00
2014-6-22,77,62,50,36,27,19,52,28,15,29.64,29.52,4,1,9,0.00
2014-6-23,75,59,44,38,34,26,65,41,17,29.78,29.61,4,1,10,0.00
2014-6-24,78,60,46,47,39,24,90,52,15,29.79,29.65,5,1,11,0.00
2014-6-25,76,62,50,50,45,28,88,60,17,29.73,29.55,6,1,11,0.00
2014-6-26,81,65,48,49,30,15,90,35,12,29.62,29.43,6,1,13,0.00
2014-6-27,74,63,55,32,26,14,37,25,16,29.44,29.32,6,2,16,0.00
2014-6-28,78,64,52,35,26,17,45,26,11,29.64,29.44,9,2,15,0.00
2014-6-29,86,68,50,31,25,15,36,21,12,29.70,29.53,7,1,12,0.00
2014-6-30,86,70,59,33,29,25,34,23,12,29.56,29.40,5,1,10,0.00
2014-7-1,73,58,51,50,45,35,91,63,37,29.79,29.48,5,1,10,0.00
2014-7-2,71,56,47,52,47,38,92,74,49,29.94,29.75,8,1,11,0.00
2014-7-3,77,57,47,48,43,35,89,63,27,29.96,29.80,5,0,9,0.04
2014-7-4,78,58,46,50,43,37,89,60,23,29.98,29.84,4,0,9,0.00
2014-7-5,74,55,47,52,48,44,95,79,38,29.96,29.82,4,0,6,0.00
2014-7-6,79,63,48,50,41,32,86,51,19,29.93,29.76,8,1,9,0.18
2014-7-7,83,62,52,49,43,35,78,53,19,29.77,29.60,3,0,6,0.00
2014-7-8,71,57,51,52,47,41,92,72,47,29.94,29.71,2,0,6,0.01
2014-7-9,76,58,48,53,47,40,88,70,29,29.92,29.78,4,1,10,0.12
2014-7-10,74,60,50,56,48,44,93,67,37,29.82,29.67,4,0,6,0.00
2014-7-11,74,58,50,64,50,45,96,76,41,29.86,29.69,2,0,4,0.20
2014-7-12,78,58,48,53,49,44,96,76,33,29.94,29.83,3,0,8,0.12
2014-7-13,67,57,50,60,52,48,95,84,54,29.94,29.86,1,0,5,0.05
2014-7-14,70,58,49,56,51,47,93,77,52,29.96,29.81,5,0,10,0.02
2014-7-15,68,54,47,53,49,46,97,83,52,29.96,29.75,3,0,11,0.02
2014-7-16,72,55,47,54,47,41,96,75,44,29.91,29.66,6,0,8,0.02
2014-7-17,66,54,46,56,49,44,97,82,55,29.82,29.67,6,0,7,0.01
2014-7-18,77,58,46,55,47,35,94,72,23,29.83,29.71,5,0,8,0.01
2014-7-19,77,60,48,51,46,40,91,64,30,29.84,29.70,4,0,7,0.02
2014-7-20,81,65,49,49,44,40,85,51,25,29.80,29.69,4,0,7,0.00
2014-7-21,79,64,56,52,46,42,77,54,30,29.83,29.69,5,1,8,0.01
2014-7-22,78,64,51,52,47,42,80,56,28,29.92,29.82,4,0,10,0.00
2014-7-23,77,62,51,53,49,44,86,63,34,29.94,29.83,3,0,11,0.00
2014-7-24,81,66,52,50,44,38,76,49,22,29.93,29.69,5,1,10,0.00
2014-7-25,84,68,55,46,42,37,56,40,22,29.75,29.57,5,1,9,0.00
2014-7-26,84,66,55,54,46,41,88,53,23,29.77,29.61,4,0,9,0.00
2014-7-27,71,58,50,59,50,46,94,76,50,30.03,29.78,4,0,7,0.00
2014-7-28,65,56,47,56,51,46,97,83,62,30.05,29.94,2,0,8,0.00
2014-7-29,71,58,50,55,52,49,96,81,50,29.99,29.74,4,1,8,0.15
2014-7-30,72,56,48,56,51,47,96,84,42,29.91,29.78,4,0,7,0.01
2014-7-31,69,52,48,56,50,48,98,93,56,29.95,29.80,3,0,11,0.01
2014-8-1,60,51,44,56,49,44,98,94,77,30.01,29.91,2,0,4,0.01
2014-8-2,66,54,48,49,46,41,97,76,49,30.05,29.93,6,1,8,0.00
2014-8-3,70,55,45,52,48,44,97,79,49,30.02,29.86,3,0,9,0.01
2014-8-4,70,55,50,54,51,46,95,86,51,30.49,29.79,3,0,8,0.00
2014-8-5,73,60,51,54,49,40,95,70,42,30.49,30.34,6,1,9,0.01
2014-8-6,77,62,49,46,41,35,76,49,24,30.41,30.30,7,1,9,0.00
2014-8-7,71,57,52,50,44,39,87,63,34,30.35,30.27,5,0,7,0.00
2014-8-8,75,59,47,50,44,31,89,62,21,30.42,30.27,4,0,10,0.00
2014-8-9,77,62,49,48,40,29,80,49,20,30.41,30.29,5,0,7,0.00
2014-8-10,68,54,46,50,44,39,95,70,44,30.67,30.39,2,0,7,0.00
2014-8-11,66,52,43,57,47,42,97,87,55,30.72,30.63,2,0,5,0.00
2014-8-12,69,56,45,57,48,44,98,78,48,30.71,30.49,2,0,6,0.01
2014-8-13,75,56,48,55,50,46,98,82,43,30.53,30.38,3,0,5,0.00
2014-8-14,69,58,51,55,51,49,98,80,53,30.47,30.32,5,1,10,0.00
2014-8-15,71,57,49,57,51,46,97,81,41,30.43,30.33,4,0,5,0.00
2014-8-16,74,58,46,54,46,42,95,68,36,30.50,30.42,3,0,7,0.00
2014-8-17,74,59,48,50,44,39,86,61,29,30.49,30.36,2,0,5,0.00
2014-8-18,74,59,50,51,44,40,75,59,35,30.42,30.25,2,0,10,0.00
2014-8-19,72,58,50,54,46,41,94,66,37,30.32,30.16,4,0,9,0.00
2014-8-20,71,60,52,51,46,41,81,63,37,30.26,30.19,5,1,11,0.00
2014-8-21,75,61,48,45,39,35,69,47,27,30.35,30.27,6,0,6,0.00
2014-8-22,59,54,47,52,44,37,97,74,46,30.36,30.25,2,0,5,0.00
2014-8-23,66,55,46,49,45,37,96,72,42,30.45,30.32,6,1,11,0.00
2014-8-24,72,59,49,47,42,38,75,56,35,30.37,30.27,5,1,11,0.00
2014-8-25,70,58,49,53,44,38,93,61,36,30.41,30.30,2,0,8,0.00
2014-8-26,62,52,48,52,48,46,98,87,64,30.51,30.39,3,0,6,0.00
2014-8-27,50,49,47,49,48,47,98,98,97,30.55,30.49,0,0,4,0.00
2014-9-5,57,52,48,50,48,46,93,86,76,30.57,30.44,1,0,3,0.00
2014-9-6,69,53,44,54,48,43,96,84,59,30.59,30.48,3,0,8,0.00
2014-9-7,75,56,45,51,46,42,97,73,32,30.57,30.35,5,0,8,0.00
2014-9-8,73,60,50,51,46,41,88,62,39,30.41,30.20,5,0,7,0.00
2014-9-9,70,58,52,52,49,44,88,72,42,30.24,30.08,13,2,17,0.00
2014-9-10,70,55,46,47,43,35,89,69,30,30.38,30.18,5,1,10,0.00
2014-9-11,70,55,43,49,42,34,95,65,29,30.43,30.29,5,1,11,0.00
2014-9-12,66,49,37,47,42,36,94,77,42,30.58,30.39,5,0,8,0.00
2014-9-13,69,54,37,47,40,32,95,64,29,30.59,30.48,6,1,13,0.00
2014-9-14,72,57,46,49,42,33,89,61,24,30.49,30.32,7,0,14,0.00
2014-9-15,70,55,47,49,44,37,93,70,31,30.57,30.41,4,0,9,0.00
2014-9-16,71,53,45,50,44,40,94,74,34,30.56,30.44,3,0,9,0.01
2014-9-17,66,54,46,48,43,37,91,69,35,30.47,30.33,3,0,5,0.00
2014-9-18,71,54,41,47,36,28,88,55,24,30.42,30.30,3,0,8,0.00
2014-9-19,74,56,42,51,46,37,97,73,28,30.34,30.24,3,0,7,0.00
2014-9-20,73,58,45,48,44,39,94,65,31,30.49,30.33,6,1,10,0.00
2014-9-21,68,56,48,49,47,45,93,73,48,30.55,30.45,4,1,8,0.00
2014-9-22,58,53,50,55,50,47,94,89,81,30.54,30.42,4,0,7,0.11
2014-9-23,67,55,48,50,44,36,96,70,34,30.51,30.41,5,1,9,0.01
2014-9-24,70,55,46,46,41,36,84,63,31,30.57,30.46,3,0,6,0.01
2014-9-25,70,54,43,48,44,41,93,71,35,30.58,30.44,2,0,5,0.00
2014-9-26,71,55,44,49,45,40,94,73,36,30.47,30.32,4,0,9,0.00
2014-9-27,66,53,46,52,47,44,96,83,51,30.37,30.21,5,0,8,0.09
2014-9-28,62,50,40,51,45,38,96,84,57,30.42,30.33,6,1,12,0.04
2014-9-29,63,48,40,48,42,33,95,81,42,30.39,30.16,9,1,17,0.01
2014-9-30,56,44,35,37,32,29,85,65,45,30.38,30.29,6,2,14,0.00
2014-10-1,59,46,35,35,31,24,87,60,37,30.37,30.22,6,1,14,0.00
2014-10-2,56,44,35,33,24,12,79,50,18,30.65,30.30,6,1,10,0.00
2014-10-3,61,47,34,29,24,19,61,42,24,30.76,30.62,6,1,12,0.02
2014-10-4,66,50,38,30,27,23,61,43,23,30.65,30.38,6,1,8,0.00
2014-10-5,65,50,38,31,24,13,60,40,14,30.43,30.32,3,0,11,0.00
2014-10-6,67,52,38,26,22,18,59,34,17,30.45,30.34,5,1,13,0.00
2014-10-7,70,53,40,27,22,16,50,32,14,30.46,30.37,5,0,6,0.00
2014-10-8,66,52,43,37,27,18,64,40,22,30.44,30.32,3,0,7,0.00
2014-10-9,54,45,40,49,43,36,98,91,67,30.41,30.22,4,0,5,0.17
2014-10-10,44,40,37,41,39,36,98,93,85,30.65,30.40,1,0,3,0.06
2014-10-11,58,45,40,43,39,35,98,81,46,30.63,30.37,4,0,8,0.03
2014-10-12,51,39,30,39,34,29,96,82,52,30.45,30.02,5,1,17,0.01
2014-10-13,46,34,26,33,27,23,97,76,43,30.81,30.44,7,0,9,0.17
2014-10-14,61,44,30,31,24,20,73,49,27,30.85,30.68,4,0,6,0.00
2014-10-15,67,51,36,27,21,13,54,34,13,30.69,30.44,5,1,11,0.00
2014-10-16,65,52,44,31,24,19,50,35,19,30.45,30.37,5,0,13,0.00
2014-10-17,61,50,43,33,28,22,58,42,29,30.46,30.37,1,0,5,0.00
2014-10-18,56,45,39,44,38,30,95,75,55,30.53,30.43,3,0,7,0.04
2014-10-19,58,44,37,42,38,34,93,79,45,30.58,30.47,3,0,5,0.00
2014-10-20,59,45,35,41,36,32,95,73,39,30.65,30.55,8,0,9,0.00
2014-10-21,51,43,36,44,39,35,97,88,68,30.55,30.43,3,0,5,0.00
2014-10-22,58,47,41,42,36,31,95,68,42,30.57,30.48,4,1,8,0.00
2014-10-23,61,47,36,37,32,28,84,58,31,30.65,30.54,3,0,7,0.00
2014-10-24,68,52,40,35,27,17,68,42,15,30.66,30.58,4,0,7,0.00
2014-10-25,70,53,39,31,23,16,49,33,15,30.61,30.43,5,0,7,0.00
2014-10-26,59,51,47,39,35,28,67,54,43,30.43,30.16,10,3,21,0.00
2014-10-27,53,46,34,34,27,14,69,50,32,30.43,30.10,11,3,19,0.00
2014-10-28,55,42,35,27,16,11,71,37,19,30.68,30.43,6,1,11,0.00
2014-10-29,58,45,35,18,13,10,37,28,17,30.72,30.61,6,1,12,0.00
2014-10-30,62,45,34,24,18,12,51,35,19,30.75,30.65,4,0,10,0.00
2014-10-31,56,41,29,32,25,20,71,55,36,30.78,30.65,3,0,7,0.00
2014-11-1,58,47,39,41,34,26,85,62,32,30.65,30.35,6,1,12,0.00
2014-11-2,47,39,33,39,34,32,97,84,64,30.39,30.29,5,1,13,0.19
2014-11-3,41,32,27,33,25,18,96,76,42,30.72,30.34,5,1,10,0.27
2014-11-4,43,33,26,27,24,21,91,72,42,30.88,30.71,3,0,5,0.00
2014-11-5,52,36,23,22,15,10,86,48,19,30.99,30.83,1,0,5,0.00
2014-11-6,55,42,30,23,18,13,55,41,25,31.00,30.79,4,0,8,0.00
2014-11-7,57,44,35,25,18,14,67,37,24,30.78,30.50,4,0,7,0.00
2014-11-8,52,39,28,27,22,16,89,56,25,30.82,30.68,5,1,11,0.00
2014-11-9,55,43,36,21,18,14,53,38,23,30.73,30.21,6,1,13,0.00
2014-11-10,51,44,38,24,21,17,52,41,31,30.21,30.00,12,4,19,0.00
2014-11-11,46,39,32,23,20,17,59,47,35,30.34,30.17,10,3,20,0.00
2014-11-12,41,28,9,29,19,5,81,70,56,30.64,30.32,6,1,11,0.00
2014-11-13,38,30,11,27,24,7,91,78,63,30.77,30.58,8,2,12,0.00
2014-11-14,40,33,29,31,29,26,96,85,66,30.56,30.36,8,2,17,0.10
2014-11-15,36,31,25,30,26,21,96,83,61,30.46,30.30,9,2,17,0.12
2014-11-16,25,17,12,24,14,9,94,88,79,30.94,30.28,5,0,9,0.00
2014-11-17,26,15,8,16,10,5,91,80,57,31.08,30.94,3,0,5,0.00
2014-11-18,30,19,10,15,11,6,90,72,44,31.12,31.01,4,0,8,0.00
2014-11-19,38,27,18,13,9,2,74,50,30,31.00,30.76,5,1,12,0.01
2014-11-20,41,31,25,15,7,-2,57,37,24,30.76,30.58,5,0,6,0.01
2014-11-21,40,30,25,21,17,14,73,59,43,30.67,30.54,3,0,9,0.03
2014-11-22,38,31,26,22,18,14,70,58,47,30.66,30.32,5,1,12,0.04
2014-11-23,31,24,12,25,19,4,92,83,65,30.60,30.19,6,1,10,0.00
2014-11-24,24,14,7,12,7,2,82,72,52,31.13,30.61,5,0,9,0.00
2014-11-25,26,18,6,13,7,2,85,62,48,31.16,31.00,10,2,15,0.00
2014-11-26,43,32,24,24,21,14,78,64,45,31.06,30.93,6,1,9,0.15
2014-11-27,51,38,29,21,18,8,70,49,18,31.02,30.79,6,0,8,0.19
2014-11-28,50,40,34,18,13,8,51,34,21,30.78,30.47,9,1,13,0.04
2014-11-29,45,40,37,17,13,10,39,33,26,30.46,30.30,9,3,16,0.02
2014-11-30,42,36,30,19,15,11,54,42,33,30.64,30.34,8,2,17,0.00
2014-12-1,40,33,28,19,16,13,61,51,40,30.81,30.64,8,1,12,0.00
2014-12-2,46,36,28,16,11,1,54,37,16,30.79,30.60,7,1,8,0.00
2014-12-3,43,36,30,34,24,9,92,64,37,30.67,30.54,8,1,8,0.00
2014-12-4,43,36,30,35,32,30,97,87,67,30.59,30.37,4,0,9,0.13
2014-12-5,39,32,27,34,29,25,97,90,75,30.96,30.51,2,0,4,0.07
2014-12-6,42,34,26,32,28,24,94,80,60,31.01,30.84,3,0,10,0.00
2014-12-7,42,34,30,32,27,17,95,78,58,30.91,30.77,3,0,5,0.01
2014-12-8,46,34,24,22,16,12,71,50,31,31.00,30.89,5,0,6,0.00
2014-12-9,48,36,26,17,11,3,57,38,16,30.93,30.73,3,0,6,0.00
2014-12-10,49,35,27,19,13,5,63,42,24,30.73,30.64,2,0,3,0.00
2014-12-11,46,37,31,24,18,12,71,49,36,30.72,30.60,3,0,9,0.00
2014-12-12,48,37,30,28,22,15,79,58,28,30.74,30.62,3,0,6,0.00
2014-12-13,43,37,29,31,26,16,93,65,40,30.61,30.20,4,1,10,0.00
2014-12-14,29,24,20,27,21,18,92,89,85,30.59,30.13,6,1,12,0.00
2014-12-15,29,21,16,18,14,10,90,73,50,30.96,30.61,5,0,9,0.01
2014-12-16,41,28,18,21,13,8,72,55,38,30.97,30.70,2,0,5,0.05
2014-12-17,30,26,23,27,21,15,94,82,63,30.69,30.45,3,0,5,0.01
2014-12-18,31,24,21,23,21,19,94,86,72,30.75,30.62,2,0,5,0.00